sensor_id;sensor_type;location;lat;lon;timestamp;pressure;altitude;pressure_sealevel;temperature;humidity
50040;BME280;44598;51.606;5.912;2023-02-18T00:18:43;101900;;;12.3;92.4
50040;BME280;44598;51.606;5.912;2023-02-18T00:32:03;101900;;;12.3;92.4
50040;BME280;44598;51.606;5.912;2023-02-18T00:45:23;101900;;;12.2;92.5
50040;BME280;44598;51.606;5.912;2023-02-18T00:58:43;101900;;;12.2;92.6
50040;BME280;44598;51.606;5.912;2023-02-18T01:12:02;101900;;;12.2;92.7
50040;BME280;44598;51.606;5.912;2023-02-18T01:25:22;101900;;;12.2;93.1
50040;BME280;44598;51.606;5.912;2023-02-18T01:52:02;101900;;;12.2;94.3
50040;BME280;44598;51.606;5.912;2023-02-18T02:05:22;101800;;;12.1;95.1
50040;BME280;44598;51.606;5.912;2023-02-18T02:18:41;101800;;;12.0;95.8
50040;BME280;44598;51.606;5.912;2023-02-18T02:32:01;101800;;;11.9;96.5
50040;BME280;44598;51.606;5.912;2023-02-18T02:45:21;101800;;;11.8;96.7
50040;BME280;44598;51.606;5.912;2023-02-18T02:58:41;101800;;;11.7;96.8
50040;BME280;44598;51.606;5.912;2023-02-18T03:25:21;101800;;;11.6;97.2
50040;BME280;44598;51.606;5.912;2023-02-18T03:38:40;101700;;;11.5;97.3
50040;BME280;44598;51.606;5.912;2023-02-18T03:52:00;101700;;;11.5;97.3
50040;BME280;44598;51.606;5.912;2023-02-18T04:05:20;101700;;;11.5;97.4
50040;BME280;44598;51.606;5.912;2023-02-18T04:18:40;101700;;;11.4;97.4
50040;BME280;44598;51.606;5.912;2023-02-18T04:32:00;101700;;;11.4;97.4
50040;BME280;44598;51.606;5.912;2023-02-18T04:45:20;101700;;;11.4;97.3
50040;BME280;44598;51.606;5.912;2023-02-18T04:58:39;101700;;;11.4;97.3
50040;BME280;44598;51.606;5.912;2023-02-18T05:11:59;101600;;;11.3;97.3
50040;BME280;44598;51.606;5.912;2023-02-18T05:25:19;101600;;;11.3;97.3
50040;BME280;44598;51.606;5.912;2023-02-18T05:38:39;101600;;;11.3;97.3
50040;BME280;44598;51.606;5.912;2023-02-18T05:51:59;101600;;;11.2;97.4
50040;BME280;44598;51.606;5.912;2023-02-18T06:05:19;101600;;;11.2;97.5
50040;BME280;44598;51.606;5.912;2023-02-18T06:18:38;101600;;;11.2;97.5
50040;BME280;44598;51.606;5.912;2023-02-18T06:31:58;101600;;;11.2;97.5
50040;BME280;44598;51.606;5.912;2023-02-18T06:45:18;101600;;;11.2;97.5
50040;BME280;44598;51.606;5.912;2023-02-18T06:58:38;101600;;;11.1;97.4
50040;BME280;44598;51.606;5.912;2023-02-18T07:11:58;101600;;;11.1;97.5
50040;BME280;44598;51.606;5.912;2023-02-18T07:25:17;101600;;;11.1;97.4
50040;BME280;44598;51.606;5.912;2023-02-18T07:38:37;101600;;;11.1;96.8
50040;BME280;44598;51.606;5.912;2023-02-18T07:51:57;101600;;;11.0;96.4
50040;BME280;44598;51.606;5.912;2023-02-18T08:05:17;101600;;;11.0;96.6
50040;BME280;44598;51.606;5.912;2023-02-18T08:18:37;101600;;;10.9;96.6
50040;BME280;44598;51.606;5.912;2023-02-18T08:31:56;101600;;;10.8;96.1
50040;BME280;44598;51.606;5.912;2023-02-18T08:58:36;101600;;;10.8;93.5
50040;BME280;44598;51.606;5.912;2023-02-18T09:11:56;101600;;;10.9;93.1
50040;BME280;44598;51.606;5.912;2023-02-18T09:25:16;101600;;;10.9;93.1
50040;BME280;44598;51.606;5.912;2023-02-18T09:38:35;101600;;;11.0;94.2
50040;BME280;44598;51.606;5.912;2023-02-18T09:51:55;101600;;;10.9;94.6
50040;BME280;44598;51.606;5.912;2023-02-18T10:05:15;101600;;;10.8;94.1
50040;BME280;44598;51.606;5.912;2023-02-18T10:31:55;101600;;;10.7;91.5
50040;BME280;44598;51.606;5.912;2023-02-18T10:45:14;101600;;;10.9;91.1
50040;BME280;44598;51.606;5.912;2023-02-18T11:11:54;101600;;;11.0;94.5
50040;BME280;44598;51.606;5.912;2023-02-18T11:25:14;101600;;;11.0;95.7
50040;BME280;44598;51.606;5.912;2023-02-18T11:38:34;101600;;;10.9;96.4
50040;BME280;44598;51.606;5.912;2023-02-18T11:51:54;101700;;;10.9;97.0
50040;BME280;44598;51.606;5.912;2023-02-18T12:05:13;101700;;;11.0;97.1
50040;BME280;44598;51.606;5.912;2023-02-18T12:31:53;101700;;;11.1;97.4
50040;BME280;44598;51.606;5.912;2023-02-18T12:45:13;101600;;;11.3;96.7
50040;BME280;44598;51.606;5.912;2023-02-18T12:58:33;101600;;;11.5;95.4
50040;BME280;44598;51.606;5.912;2023-02-18T13:11:53;101600;;;11.6;94.0
50040;BME280;44598;51.606;5.912;2023-02-18T13:25:12;101600;;;11.8;92.9
50040;BME280;44598;51.606;5.912;2023-02-18T13:38:32;101600;;;12.1;92.4
50040;BME280;44598;51.606;5.912;2023-02-18T13:51:52;101600;;;12.3;92.1
50040;BME280;44598;51.606;5.912;2023-02-18T14:18:32;101600;;;12.6;91.7
50040;BME280;44598;51.606;5.912;2023-02-18T14:31:52;101600;;;12.6;91.3
50040;BME280;44598;51.606;5.912;2023-02-18T14:58:31;101600;;;12.6;89.9
50040;BME280;44598;51.606;5.912;2023-02-18T15:11:51;101600;;;12.7;89.7
50040;BME280;44598;51.606;5.912;2023-02-18T16:05:10;101600;;;13.0;88.8
50040;BME280;44598;51.606;5.912;2023-02-18T16:18:30;101600;;;12.9;89.1
50040;BME280;44598;51.606;5.912;2023-02-18T16:58:30;101600;;;12.8;89.3
50040;BME280;44598;51.606;5.912;2023-02-18T17:51:49;101600;;;12.6;92.6
50040;BME280;44598;51.606;5.912;2023-02-18T18:05:09;101600;;;12.5;94.4
50040;BME280;44598;51.606;5.912;2023-02-18T18:18:28;101600;;;12.3;95.4
50040;BME280;44598;51.606;5.912;2023-02-18T18:31:48;101600;;;12.1;95.7
50040;BME280;44598;51.606;5.912;2023-02-18T18:45:08;101600;;;12.0;96.1
50040;BME280;44598;51.606;5.912;2023-02-18T18:58:28;101600;;;11.8;96.3
50040;BME280;44598;51.606;5.912;2023-02-18T19:25:08;101600;;;11.6;96.0
50040;BME280;44598;51.606;5.912;2023-02-18T19:38:27;101600;;;11.6;95.7
50040;BME280;44598;51.606;5.912;2023-02-18T19:51:47;101600;;;11.6;95.5
50040;BME280;44598;51.606;5.912;2023-02-18T20:05:07;101600;;;11.6;95.5
50040;BME280;44598;51.606;5.912;2023-02-18T20:18:27;101600;;;11.6;95.5
50040;BME280;44598;51.606;5.912;2023-02-18T20:31:47;101600;;;11.6;95.5
50040;BME280;44598;51.606;5.912;2023-02-18T20:45:06;101600;;;11.6;95.4
50040;BME280;44598;51.606;5.912;2023-02-18T21:11:46;101600;;;11.6;95.9
50040;BME280;44598;51.606;5.912;2023-02-18T21:25:06;101500;;;11.5;95.7
50040;BME280;44598;51.606;5.912;2023-02-18T21:38:26;101500;;;11.5;95.2
50040;BME280;44598;51.606;5.912;2023-02-18T21:51:45;101500;;;11.6;95.7
50040;BME280;44598;51.606;5.912;2023-02-18T22:05:05;101500;;;11.5;95.9
50040;BME280;44598;51.606;5.912;2023-02-18T22:18:25;101500;;;11.5;95.6
50040;BME280;44598;51.606;5.912;2023-02-18T22:45:05;101500;;;11.5;95.2
50040;BME280;44598;51.606;5.912;2023-02-18T23:11:44;101500;;;11.6;94.7
50040;BME280;44598;51.606;5.912;2023-02-18T23:25:04;101500;;;11.7;95.0
50040;BME280;44598;51.606;5.912;2023-02-18T23:38:24;101500;;;11.7;95.8
50040;BME280;44598;51.606;5.912;2023-02-18T23:51:44;101500;;;11.6;96.2
